ANZ156 YBCS-YBBN
Flight info
| Callsign | ANZ156 |
|---|---|
| Flight time | 1h 44m |
| Altitude | 37000 |
| Route | AKROM Y177 SMOKA |
| Aircraft | A320/M-SDE3FGHIRWY/LB1 |
Departure
| Time | 2026-05-05 16:43 |
|---|---|
| Airport | Cairns International Airport (YBCS) |
Arrival
| Time | 2026-05-05 18:27 |
|---|---|
| Airport | Brisbane International Airport (YBBN) |
| Time | Latitude | Longitude | Altitude | Speed | Heading |
|---|---|---|---|---|---|
| 2026-05-05 15:52 | -16.87187 | 145.75595 | 25 ft | 0 kts | 157° |
| 2026-05-05 16:29 | -16.87176 | 145.75590 | 24 ft | 4 kts | 156° |
| 2026-05-05 16:29 | -16.87152 | 145.75579 | 24 ft | 4 kts | 158° |
| 2026-05-05 16:30 | -16.87126 | 145.75570 | 24 ft | 4 kts | 168° |
| 2026-05-05 16:30 | -16.87100 | 145.75567 | 24 ft | 2 kts | 188° |
| 2026-05-05 16:30 | -16.87098 | 145.75568 | 24 ft | 0 kts | 189° |
| 2026-05-05 16:33 | -16.87099 | 145.75567 | 24 ft | 1 kts | 189° |
| 2026-05-05 16:33 | -16.87106 | 145.75562 | 24 ft | 3 kts | 240° |
| 2026-05-05 16:34 | -16.87122 | 145.75525 | 24 ft | 7 kts | 247° |
| 2026-05-05 16:34 | -16.87145 | 145.75468 | 24 ft | 10 kts | 247° |
| 2026-05-05 16:34 | -16.87167 | 145.75405 | 24 ft | 10 kts | 257° |
| 2026-05-05 16:34 | -16.87193 | 145.75331 | 24 ft | 11 kts | 246° |
| 2026-05-05 16:35 | -16.87225 | 145.75256 | 24 ft | 12 kts | 246° |
| 2026-05-05 16:35 | -16.87262 | 145.75167 | 24 ft | 14 kts | 246° |
| 2026-05-05 16:35 | -16.87298 | 145.75082 | 24 ft | 11 kts | 246° |
| 2026-05-05 16:35 | -16.87334 | 145.75014 | 24 ft | 12 kts | 222° |
| 2026-05-05 16:36 | -16.87412 | 145.74975 | 24 ft | 12 kts | 202° |
| 2026-05-05 16:36 | -16.87500 | 145.74967 | 24 ft | 14 kts | 159° |
| 2026-05-05 16:36 | -16.87562 | 145.74994 | 24 ft | 15 kts | 156° |
| 2026-05-05 16:36 | -16.87660 | 145.75035 | 24 ft | 16 kts | 160° |
| 2026-05-05 16:37 | -16.87769 | 145.75080 | 24 ft | 18 kts | 156° |
| 2026-05-05 16:37 | -16.87885 | 145.75132 | 24 ft | 18 kts | 156° |
| 2026-05-05 16:37 | -16.88008 | 145.75187 | 24 ft | 20 kts | 156° |
| 2026-05-05 16:37 | -16.88132 | 145.75243 | 24 ft | 19 kts | 156° |
| 2026-05-05 16:38 | -16.88239 | 145.75293 | 24 ft | 16 kts | 156° |
| 2026-05-05 16:38 | -16.88345 | 145.75346 | 24 ft | 18 kts | 153° |
| 2026-05-05 16:38 | -16.88463 | 145.75401 | 24 ft | 17 kts | 156° |
| 2026-05-05 16:38 | -16.88558 | 145.75444 | 24 ft | 13 kts | 157° |
| 2026-05-05 16:39 | -16.88640 | 145.75461 | 24 ft | 11 kts | 203° |
| 2026-05-05 16:39 | -16.88661 | 145.75439 | 24 ft | 0 kts | 241° |
| 2026-05-05 16:39 | -16.88663 | 145.75435 | 24 ft | 2 kts | 241° |
| 2026-05-05 16:39 | -16.88678 | 145.75405 | 24 ft | 6 kts | 243° |
| 2026-05-05 16:40 | -16.88701 | 145.75360 | 24 ft | 8 kts | 233° |
| 2026-05-05 16:40 | -16.88764 | 145.75343 | 24 ft | 12 kts | 160° |
| 2026-05-05 16:40 | -16.88855 | 145.75383 | 24 ft | 17 kts | 156° |
| 2026-05-05 16:40 | -16.88970 | 145.75435 | 24 ft | 19 kts | 156° |
| 2026-05-05 16:41 | -16.89091 | 145.75490 | 24 ft | 16 kts | 156° |
| 2026-05-05 16:41 | -16.89181 | 145.75514 | 24 ft | 13 kts | 188° |
| 2026-05-05 16:41 | -16.89204 | 145.75545 | 24 ft | 7 kts | 359° |
| 2026-05-05 16:41 | -16.89167 | 145.75525 | 24 ft | 0 kts | 335° |
| 2026-05-05 16:42 | -16.89166 | 145.75525 | 24 ft | 0 kts | 335° |
| 2026-05-05 16:42 | -16.89058 | 145.75474 | 24 ft | 49 kts | 336° |
| 2026-05-05 16:42 | -16.88535 | 145.75237 | 25 ft | 113 kts | 336° |
| 2026-05-05 16:42 | -16.87652 | 145.74839 | 26 ft | 161 kts | 336° |
| 2026-05-05 16:43 | -16.86569 | 145.74349 | 383 ft | 170 kts | 336° |
| 2026-05-05 16:43 | -16.85457 | 145.73942 | 961 ft | 174 kts | 352° |
| 2026-05-05 16:43 | -16.84307 | 145.74357 | 1208 ft | 191 kts | 51° |
| 2026-05-05 16:43 | -16.84014 | 145.75722 | 1560 ft | 201 kts | 100° |
| 2026-05-05 16:44 | -16.84599 | 145.77049 | 2085 ft | 207 kts | 126° |
| 2026-05-05 16:44 | -16.85629 | 145.78176 | 2463 ft | 222 kts | 146° |
| 2026-05-05 16:44 | -16.86967 | 145.79074 | 2970 ft | 236 kts | 153° |
| 2026-05-05 16:44 | -16.88429 | 145.79960 | 3510 ft | 251 kts | 152° |
| 2026-05-05 16:45 | -16.89935 | 145.80943 | 4205 ft | 259 kts | 148° |
| 2026-05-05 16:45 | -16.91440 | 145.81984 | 5078 ft | 260 kts | 147° |
| 2026-05-05 16:45 | -16.92952 | 145.83023 | 5941 ft | 261 kts | 146° |
| 2026-05-05 16:45 | -16.94482 | 145.84059 | 6746 ft | 263 kts | 146° |
| 2026-05-05 16:46 | -16.96034 | 145.85105 | 7488 ft | 267 kts | 146° |
| 2026-05-05 16:46 | -16.97585 | 145.86148 | 8187 ft | 271 kts | 146° |
| 2026-05-05 16:46 | -16.99197 | 145.87236 | 8713 ft | 282 kts | 146° |
| 2026-05-05 16:46 | -17.00910 | 145.88392 | 9101 ft | 297 kts | 146° |
| 2026-05-05 16:47 | -17.02679 | 145.89588 | 9530 ft | 308 kts | 146° |
| 2026-05-05 16:47 | -17.04496 | 145.90815 | 10070 ft | 314 kts | 147° |
| 2026-05-05 16:47 | -17.06348 | 145.92065 | 10595 ft | 320 kts | 147° |
| 2026-05-05 16:47 | -17.08237 | 145.93340 | 11105 ft | 326 kts | 147° |
| 2026-05-05 16:48 | -17.10134 | 145.94622 | 11617 ft | 331 kts | 148° |
| 2026-05-05 16:48 | -17.12075 | 145.95937 | 12161 ft | 334 kts | 148° |
| 2026-05-05 16:48 | -17.14043 | 145.97270 | 12657 ft | 339 kts | 148° |
| 2026-05-05 16:48 | -17.16044 | 145.98619 | 13103 ft | 345 kts | 148° |
| 2026-05-05 16:49 | -17.18078 | 145.99992 | 13532 ft | 352 kts | 148° |
| 2026-05-05 16:49 | -17.20147 | 146.01393 | 13983 ft | 357 kts | 148° |
| 2026-05-05 16:49 | -17.22242 | 146.02814 | 14452 ft | 361 kts | 148° |
| 2026-05-05 16:49 | -17.24358 | 146.04249 | 14917 ft | 365 kts | 148° |
| 2026-05-05 16:50 | -17.26503 | 146.05701 | 15378 ft | 369 kts | 148° |
| 2026-05-05 16:50 | -17.28674 | 146.07171 | 15827 ft | 373 kts | 148° |
| 2026-05-05 16:50 | -17.30865 | 146.08653 | 16271 ft | 377 kts | 148° |
| 2026-05-05 16:50 | -17.33071 | 146.10149 | 16711 ft | 381 kts | 148° |
| 2026-05-05 16:51 | -17.35312 | 146.11670 | 17143 ft | 385 kts | 148° |
| 2026-05-05 16:51 | -17.37574 | 146.13206 | 17573 ft | 389 kts | 148° |
| 2026-05-05 16:51 | -17.39857 | 146.14756 | 18001 ft | 393 kts | 148° |
| 2026-05-05 16:51 | -17.42153 | 146.16314 | 18426 ft | 396 kts | 148° |
| 2026-05-05 16:52 | -17.44482 | 146.17894 | 18852 ft | 399 kts | 148° |
| 2026-05-05 16:52 | -17.46817 | 146.19479 | 19283 ft | 402 kts | 148° |
| 2026-05-05 16:52 | -17.49174 | 146.21081 | 19700 ft | 405 kts | 148° |
| 2026-05-05 16:52 | -17.51546 | 146.22693 | 20100 ft | 408 kts | 148° |
| 2026-05-05 16:53 | -17.53943 | 146.24322 | 20511 ft | 411 kts | 148° |
| 2026-05-05 16:53 | -17.56353 | 146.25962 | 20900 ft | 414 kts | 148° |
| 2026-05-05 16:53 | -17.58773 | 146.27609 | 21291 ft | 417 kts | 148° |
| 2026-05-05 16:53 | -17.61213 | 146.29271 | 21664 ft | 419 kts | 149° |
| 2026-05-05 16:54 | -17.63666 | 146.30938 | 22020 ft | 422 kts | 149° |
| 2026-05-05 16:54 | -17.66143 | 146.32624 | 22383 ft | 425 kts | 149° |
| 2026-05-05 16:54 | -17.68628 | 146.34318 | 22727 ft | 427 kts | 149° |
| 2026-05-05 16:54 | -17.71128 | 146.36022 | 23074 ft | 430 kts | 149° |
| 2026-05-05 16:55 | -17.73633 | 146.37731 | 23396 ft | 432 kts | 149° |
| 2026-05-05 16:55 | -17.76167 | 146.39459 | 23730 ft | 434 kts | 149° |
| 2026-05-05 16:55 | -17.78701 | 146.41187 | 24039 ft | 437 kts | 149° |
| 2026-05-05 16:55 | -17.81261 | 146.42931 | 24354 ft | 439 kts | 149° |
| 2026-05-05 16:56 | -17.83825 | 146.44682 | 24662 ft | 441 kts | 149° |
| 2026-05-05 16:56 | -17.86405 | 146.46445 | 24972 ft | 443 kts | 149° |
| 2026-05-05 16:56 | -17.88985 | 146.48207 | 25268 ft | 445 kts | 149° |
| 2026-05-05 16:56 | -17.91588 | 146.49987 | 25567 ft | 446 kts | 150° |
| 2026-05-05 16:57 | -17.94190 | 146.51767 | 25856 ft | 448 kts | 150° |
| 2026-05-05 16:57 | -17.96804 | 146.53555 | 26144 ft | 450 kts | 150° |
| 2026-05-05 16:57 | -17.99435 | 146.55356 | 26431 ft | 452 kts | 150° |
| 2026-05-05 16:57 | -18.02078 | 146.57167 | 26697 ft | 454 kts | 150° |
| 2026-05-05 16:58 | -18.04734 | 146.58986 | 26946 ft | 456 kts | 150° |
| 2026-05-05 16:58 | -18.07398 | 146.60807 | 27217 ft | 458 kts | 150° |
| 2026-05-05 16:58 | -18.10042 | 146.62614 | 27439 ft | 461 kts | 150° |
| 2026-05-05 16:58 | -18.12750 | 146.64470 | 27541 ft | 467 kts | 150° |
| 2026-05-05 16:59 | -18.15489 | 146.66348 | 27633 ft | 473 kts | 150° |
| 2026-05-05 16:59 | -18.18265 | 146.68251 | 27724 ft | 479 kts | 150° |
| 2026-05-05 16:59 | -18.21071 | 146.70177 | 27812 ft | 485 kts | 150° |
| 2026-05-05 16:59 | -18.23910 | 146.72127 | 27902 ft | 490 kts | 150° |
| 2026-05-05 17:00 | -18.26780 | 146.74099 | 27989 ft | 495 kts | 150° |
| 2026-05-05 17:00 | -18.29680 | 146.76093 | 28083 ft | 500 kts | 150° |
| 2026-05-05 17:00 | -18.32601 | 146.78099 | 28289 ft | 502 kts | 150° |
| 2026-05-05 17:00 | -18.35546 | 146.80086 | 28499 ft | 503 kts | 153° |
| 2026-05-05 17:01 | -18.38579 | 146.81919 | 28717 ft | 503 kts | 155° |
| 2026-05-05 17:01 | -18.41639 | 146.83719 | 28931 ft | 505 kts | 155° |
| 2026-05-05 17:01 | -18.44726 | 146.85506 | 29140 ft | 506 kts | 155° |
| 2026-05-05 17:01 | -18.47817 | 146.87292 | 29349 ft | 508 kts | 155° |
| 2026-05-05 17:02 | -18.50916 | 146.89099 | 29543 ft | 510 kts | 155° |
| 2026-05-05 17:02 | -18.54018 | 146.90928 | 29739 ft | 512 kts | 155° |
| 2026-05-05 17:02 | -18.57126 | 146.92769 | 29939 ft | 513 kts | 155° |
| 2026-05-05 17:02 | -18.60239 | 146.94607 | 30118 ft | 514 kts | 155° |
| 2026-05-05 17:03 | -18.63373 | 146.96447 | 30290 ft | 516 kts | 155° |
| 2026-05-05 17:03 | -18.66518 | 146.98288 | 30447 ft | 518 kts | 155° |
| 2026-05-05 17:03 | -18.69673 | 147.00140 | 30601 ft | 519 kts | 155° |
| 2026-05-05 17:03 | -18.72830 | 147.02000 | 30794 ft | 520 kts | 155° |
| 2026-05-05 17:04 | -18.75989 | 147.03864 | 31011 ft | 520 kts | 155° |
| 2026-05-05 17:04 | -18.79152 | 147.05731 | 31212 ft | 520 kts | 155° |
| 2026-05-05 17:04 | -18.82311 | 147.07595 | 31452 ft | 520 kts | 155° |
| 2026-05-05 17:04 | -18.85467 | 147.09452 | 31671 ft | 520 kts | 155° |
| 2026-05-05 17:05 | -18.88585 | 147.11286 | 31915 ft | 519 kts | 155° |
| 2026-05-05 17:05 | -18.91744 | 147.13150 | 32109 ft | 520 kts | 155° |
| 2026-05-05 17:05 | -18.94900 | 147.15018 | 32344 ft | 520 kts | 155° |
| 2026-05-05 17:05 | -18.98057 | 147.16886 | 32555 ft | 520 kts | 155° |
| 2026-05-05 17:06 | -19.01218 | 147.18757 | 32763 ft | 520 kts | 155° |
| 2026-05-05 17:06 | -19.04376 | 147.20624 | 32981 ft | 520 kts | 155° |
| 2026-05-05 17:06 | -19.07532 | 147.22489 | 33186 ft | 520 kts | 155° |
| 2026-05-05 17:06 | -19.10691 | 147.24354 | 33379 ft | 520 kts | 155° |
| 2026-05-05 17:07 | -19.13850 | 147.26226 | 33604 ft | 520 kts | 155° |
| 2026-05-05 17:07 | -19.17004 | 147.28098 | 33813 ft | 520 kts | 155° |
| 2026-05-05 17:07 | -19.20160 | 147.29969 | 33955 ft | 521 kts | 155° |
| 2026-05-05 17:07 | -19.23332 | 147.31846 | 34151 ft | 521 kts | 155° |
| 2026-05-05 17:08 | -19.26489 | 147.33718 | 34337 ft | 521 kts | 155° |
| 2026-05-05 17:08 | -19.29651 | 147.35596 | 34532 ft | 521 kts | 155° |
| 2026-05-05 17:08 | -19.32811 | 147.37473 | 34740 ft | 520 kts | 155° |
| 2026-05-05 17:08 | -19.35969 | 147.39347 | 34871 ft | 521 kts | 155° |
| 2026-05-05 17:09 | -19.39133 | 147.41224 | 35028 ft | 522 kts | 155° |
| 2026-05-05 17:09 | -19.42299 | 147.43104 | 35177 ft | 522 kts | 155° |
| 2026-05-05 17:09 | -19.45467 | 147.44989 | 35327 ft | 522 kts | 155° |
| 2026-05-05 17:09 | -19.48636 | 147.46878 | 35492 ft | 522 kts | 155° |
| 2026-05-05 17:10 | -19.51800 | 147.48764 | 35645 ft | 522 kts | 155° |
| 2026-05-05 17:10 | -19.54968 | 147.50647 | 35730 ft | 523 kts | 155° |
| 2026-05-05 17:10 | -19.58142 | 147.52533 | 35867 ft | 523 kts | 155° |
| 2026-05-05 17:10 | -19.61316 | 147.54425 | 35965 ft | 523 kts | 155° |
| 2026-05-05 17:11 | -19.64482 | 147.56318 | 36093 ft | 523 kts | 155° |
| 2026-05-05 17:11 | -19.67654 | 147.58213 | 36195 ft | 523 kts | 155° |
| 2026-05-05 17:11 | -19.70825 | 147.60104 | 36328 ft | 523 kts | 155° |
| 2026-05-05 17:11 | -19.74005 | 147.62001 | 36393 ft | 524 kts | 155° |
| 2026-05-05 17:12 | -19.77183 | 147.63896 | 36536 ft | 524 kts | 155° |
| 2026-05-05 17:12 | -19.80361 | 147.65792 | 36683 ft | 524 kts | 155° |
| 2026-05-05 17:12 | -19.83492 | 147.67663 | 36804 ft | 524 kts | 155° |
| 2026-05-05 17:12 | -19.86670 | 147.69563 | 36936 ft | 524 kts | 155° |
| 2026-05-05 17:13 | -19.93030 | 147.73369 | 37004 ft | 526 kts | 155° |
| 2026-05-05 17:13 | -19.99401 | 147.77184 | 37005 ft | 526 kts | 155° |
| 2026-05-05 17:14 | -20.05774 | 147.81002 | 37006 ft | 526 kts | 155° |
| 2026-05-05 17:14 | -20.12142 | 147.84822 | 37007 ft | 526 kts | 155° |
| 2026-05-05 17:15 | -20.18507 | 147.88645 | 37019 ft | 525 kts | 155° |
| 2026-05-05 17:15 | -20.24876 | 147.92470 | 37032 ft | 525 kts | 155° |
| 2026-05-05 17:16 | -20.31243 | 147.96300 | 37040 ft | 526 kts | 155° |
| 2026-05-05 17:16 | -20.37610 | 148.00131 | 37044 ft | 526 kts | 155° |
| 2026-05-05 17:17 | -20.43975 | 148.03970 | 37040 ft | 526 kts | 155° |
| 2026-05-05 17:17 | -20.50345 | 148.07810 | 37041 ft | 526 kts | 155° |
| 2026-05-05 17:18 | -20.56667 | 148.11631 | 37039 ft | 526 kts | 155° |
| 2026-05-05 17:18 | -20.63032 | 148.15476 | 37007 ft | 526 kts | 155° |
| 2026-05-05 17:19 | -20.69401 | 148.19330 | 36990 ft | 526 kts | 156° |
| 2026-05-05 17:19 | -20.75778 | 148.23188 | 36963 ft | 527 kts | 156° |
| 2026-05-05 17:20 | -20.82153 | 148.27053 | 36990 ft | 527 kts | 155° |
| 2026-05-05 17:20 | -20.88527 | 148.30926 | 36984 ft | 527 kts | 156° |
| 2026-05-05 17:21 | -20.93878 | 148.34173 | 36973 ft | 528 kts | 156° |
| 2026-05-05 17:22 | -21.03406 | 148.39966 | 37035 ft | 527 kts | 156° |
| 2026-05-05 17:22 | -21.09789 | 148.43852 | 37008 ft | 528 kts | 156° |
| 2026-05-05 17:23 | -21.16178 | 148.47742 | 37021 ft | 528 kts | 156° |
| 2026-05-05 17:23 | -21.22564 | 148.51641 | 37037 ft | 528 kts | 156° |
| 2026-05-05 17:24 | -21.28952 | 148.55541 | 37010 ft | 529 kts | 156° |
| 2026-05-05 17:24 | -21.35352 | 148.59450 | 37018 ft | 529 kts | 156° |
| 2026-05-05 17:25 | -21.41740 | 148.63360 | 37015 ft | 529 kts | 156° |
| 2026-05-05 17:25 | -21.48137 | 148.67278 | 37033 ft | 529 kts | 156° |
| 2026-05-05 17:26 | -21.54527 | 148.71196 | 37011 ft | 530 kts | 156° |
| 2026-05-05 17:26 | -21.60930 | 148.75122 | 37009 ft | 530 kts | 156° |
| 2026-05-05 17:27 | -21.67329 | 148.79057 | 37009 ft | 530 kts | 156° |
| 2026-05-05 17:27 | -21.73727 | 148.82990 | 37022 ft | 530 kts | 156° |
| 2026-05-05 17:28 | -21.80126 | 148.86929 | 37048 ft | 530 kts | 155° |
| 2026-05-05 17:28 | -21.86520 | 148.90874 | 37057 ft | 530 kts | 156° |
| 2026-05-05 17:29 | -21.92920 | 148.94817 | 37061 ft | 530 kts | 156° |
| 2026-05-05 17:29 | -21.99326 | 148.98773 | 37059 ft | 530 kts | 155° |
| 2026-05-05 17:30 | -22.05725 | 149.02734 | 37051 ft | 530 kts | 156° |
| 2026-05-05 17:30 | -22.12121 | 149.06689 | 37014 ft | 530 kts | 156° |
| 2026-05-05 17:31 | -22.18522 | 149.10654 | 36975 ft | 531 kts | 156° |
| 2026-05-05 17:31 | -22.24928 | 149.14628 | 36975 ft | 532 kts | 156° |
| 2026-05-05 17:32 | -22.31351 | 149.18614 | 36974 ft | 533 kts | 156° |
| 2026-05-05 17:32 | -22.37791 | 149.22617 | 36997 ft | 534 kts | 156° |
| 2026-05-05 17:33 | -22.44231 | 149.26625 | 37057 ft | 534 kts | 156° |
| 2026-05-05 17:33 | -22.50668 | 149.30632 | 37079 ft | 534 kts | 156° |
| 2026-05-05 17:34 | -22.57107 | 149.34644 | 37071 ft | 534 kts | 156° |
| 2026-05-05 17:34 | -22.63548 | 149.38662 | 37073 ft | 534 kts | 156° |
| 2026-05-05 17:35 | -22.69988 | 149.42691 | 37073 ft | 534 kts | 156° |
| 2026-05-05 17:35 | -22.76428 | 149.46722 | 37052 ft | 535 kts | 156° |
| 2026-05-05 17:36 | -22.82874 | 149.50751 | 37033 ft | 535 kts | 156° |
| 2026-05-05 17:36 | -22.89326 | 149.54796 | 37008 ft | 536 kts | 156° |
| 2026-05-05 17:37 | -22.95784 | 149.58849 | 36998 ft | 536 kts | 156° |
| 2026-05-05 17:37 | -23.02248 | 149.62913 | 37008 ft | 537 kts | 156° |
| 2026-05-05 17:38 | -23.08672 | 149.66960 | 36995 ft | 538 kts | 156° |
| 2026-05-05 17:38 | -23.15145 | 149.71047 | 37013 ft | 538 kts | 156° |
| 2026-05-05 17:39 | -23.21619 | 149.75138 | 37022 ft | 539 kts | 156° |
| 2026-05-05 17:39 | -23.28106 | 149.79244 | 37033 ft | 540 kts | 156° |
| 2026-05-05 17:40 | -23.34594 | 149.83364 | 37056 ft | 540 kts | 156° |
| 2026-05-05 17:40 | -23.41092 | 149.87493 | 37025 ft | 541 kts | 156° |
| 2026-05-05 17:41 | -23.47594 | 149.91619 | 37060 ft | 541 kts | 156° |
| 2026-05-05 17:41 | -23.54098 | 149.95754 | 37042 ft | 542 kts | 156° |
| 2026-05-05 17:42 | -23.60618 | 149.99907 | 37017 ft | 543 kts | 156° |
| 2026-05-05 17:42 | -23.67138 | 150.04057 | 37062 ft | 542 kts | 156° |
| 2026-05-05 17:43 | -23.73657 | 150.08215 | 37030 ft | 543 kts | 156° |
| 2026-05-05 17:43 | -23.80168 | 150.12379 | 37024 ft | 542 kts | 156° |
| 2026-05-05 17:44 | -23.86673 | 150.16543 | 37018 ft | 541 kts | 156° |
| 2026-05-05 17:44 | -23.93167 | 150.20700 | 37020 ft | 539 kts | 156° |
| 2026-05-05 17:45 | -23.99630 | 150.24840 | 37024 ft | 537 kts | 156° |
| 2026-05-05 17:45 | -24.06047 | 150.28965 | 37035 ft | 535 kts | 156° |
| 2026-05-05 17:46 | -24.12508 | 150.33119 | 37069 ft | 542 kts | 156° |
| 2026-05-05 17:46 | -24.19039 | 150.37313 | 37078 ft | 544 kts | 156° |
| 2026-05-05 17:47 | -24.25569 | 150.41516 | 37086 ft | 545 kts | 156° |
| 2026-05-05 17:47 | -24.32050 | 150.45711 | 37089 ft | 544 kts | 156° |
| 2026-05-05 17:48 | -24.38576 | 150.49924 | 37105 ft | 544 kts | 156° |
| 2026-05-05 17:48 | -24.45104 | 150.54131 | 37129 ft | 544 kts | 156° |
| 2026-05-05 17:49 | -24.51572 | 150.58474 | 37131 ft | 547 kts | 153° |
| 2026-05-05 17:49 | -24.57927 | 150.63102 | 37126 ft | 548 kts | 152° |
| 2026-05-05 17:50 | -24.64255 | 150.67772 | 37125 ft | 547 kts | 152° |
| 2026-05-05 17:50 | -24.70593 | 150.72383 | 37125 ft | 546 kts | 153° |
| 2026-05-05 17:51 | -24.76932 | 150.76993 | 37121 ft | 546 kts | 152° |
| 2026-05-05 17:51 | -24.83257 | 150.81646 | 37117 ft | 547 kts | 152° |
| 2026-05-05 17:52 | -24.89582 | 150.86299 | 37121 ft | 547 kts | 152° |
| 2026-05-05 17:52 | -24.95921 | 150.90935 | 37082 ft | 547 kts | 152° |
| 2026-05-05 17:53 | -25.02247 | 150.95586 | 37052 ft | 540 kts | 152° |
| 2026-05-05 17:53 | -25.08400 | 151.00140 | 37077 ft | 530 kts | 152° |
| 2026-05-05 17:54 | -25.14533 | 151.04635 | 37086 ft | 529 kts | 153° |
| 2026-05-05 17:54 | -25.20654 | 151.09147 | 37090 ft | 529 kts | 152° |
| 2026-05-05 17:55 | -25.26764 | 151.13670 | 37091 ft | 529 kts | 153° |
| 2026-05-05 17:55 | -25.32874 | 151.18198 | 37092 ft | 529 kts | 152° |
| 2026-05-05 17:56 | -25.38953 | 151.22692 | 37081 ft | 529 kts | 153° |
| 2026-05-05 17:56 | -25.45081 | 151.27217 | 36328 ft | 533 kts | 152° |
| 2026-05-05 17:56 | -25.48202 | 151.29528 | 35027 ft | 548 kts | 152° |
| 2026-05-05 17:57 | -25.51396 | 151.31897 | 33946 ft | 555 kts | 151° |
| 2026-05-05 17:57 | -25.54595 | 151.34288 | 33277 ft | 552 kts | 151° |
| 2026-05-05 17:57 | -25.57746 | 151.36652 | 32957 ft | 542 kts | 150° |
| 2026-05-05 17:57 | -25.60838 | 151.38967 | 32714 ft | 531 kts | 150° |
| 2026-05-05 17:58 | -25.63872 | 151.41227 | 32406 ft | 521 kts | 151° |
| 2026-05-05 17:58 | -25.66870 | 151.43451 | 31921 ft | 517 kts | 150° |
| 2026-05-05 17:58 | -25.69851 | 151.45662 | 31395 ft | 513 kts | 150° |
| 2026-05-05 17:58 | -25.72799 | 151.47863 | 30892 ft | 510 kts | 150° |
| 2026-05-05 17:59 | -25.75630 | 151.50229 | 30363 ft | 510 kts | 142° |
| 2026-05-05 17:59 | -25.78299 | 151.52796 | 29869 ft | 506 kts | 140° |
| 2026-05-05 17:59 | -25.80906 | 151.55399 | 29376 ft | 502 kts | 139° |
| 2026-05-05 17:59 | -25.83467 | 151.58018 | 28907 ft | 498 kts | 139° |
| 2026-05-05 18:00 | -25.85977 | 151.60569 | 28441 ft | 494 kts | 140° |
| 2026-05-05 18:00 | -25.88552 | 151.63138 | 27985 ft | 489 kts | 140° |
| 2026-05-05 18:00 | -25.91047 | 151.65599 | 27529 ft | 485 kts | 141° |
| 2026-05-05 18:00 | -25.93560 | 151.68069 | 27079 ft | 480 kts | 141° |
| 2026-05-05 18:01 | -25.96042 | 151.70527 | 26634 ft | 476 kts | 141° |
| 2026-05-05 18:01 | -25.98497 | 151.72973 | 26185 ft | 472 kts | 141° |
| 2026-05-05 18:01 | -26.00928 | 151.75400 | 25743 ft | 467 kts | 141° |
| 2026-05-05 18:01 | -26.03330 | 151.77801 | 25304 ft | 463 kts | 141° |
| 2026-05-05 18:02 | -26.05715 | 151.80186 | 24871 ft | 459 kts | 141° |
| 2026-05-05 18:02 | -26.08077 | 151.82544 | 24438 ft | 454 kts | 141° |
| 2026-05-05 18:02 | -26.10418 | 151.84881 | 24007 ft | 450 kts | 141° |
| 2026-05-05 18:02 | -26.12729 | 151.87199 | 23577 ft | 446 kts | 141° |
| 2026-05-05 18:03 | -26.15018 | 151.89499 | 23141 ft | 441 kts | 141° |
| 2026-05-05 18:03 | -26.17293 | 151.91775 | 22706 ft | 437 kts | 141° |
| 2026-05-05 18:03 | -26.19548 | 151.94027 | 22270 ft | 433 kts | 141° |
| 2026-05-05 18:03 | -26.21781 | 151.96258 | 21836 ft | 429 kts | 140° |
| 2026-05-05 18:04 | -26.23991 | 151.98474 | 21403 ft | 426 kts | 140° |
| 2026-05-05 18:04 | -26.26176 | 152.00675 | 20972 ft | 422 kts | 140° |
| 2026-05-05 18:04 | -26.28342 | 152.02857 | 20537 ft | 418 kts | 139° |
| 2026-05-05 18:04 | -26.30492 | 152.05016 | 20104 ft | 414 kts | 139° |
| 2026-05-05 18:05 | -26.32623 | 152.07155 | 19680 ft | 410 kts | 139° |
| 2026-05-05 18:05 | -26.34730 | 152.09272 | 19254 ft | 406 kts | 139° |
| 2026-05-05 18:05 | -26.36116 | 152.10665 | 18971 ft | 404 kts | 139° |
| 2026-05-05 18:05 | -26.38894 | 152.13455 | 18404 ft | 399 kts | 139° |
| 2026-05-05 18:06 | -26.40253 | 152.14822 | 18125 ft | 397 kts | 138° |
| 2026-05-05 18:06 | -26.41604 | 152.16180 | 17847 ft | 394 kts | 138° |
| 2026-05-05 18:06 | -26.44964 | 152.19558 | 17173 ft | 388 kts | 138° |
| 2026-05-05 18:06 | -26.46954 | 152.21566 | 16780 ft | 383 kts | 138° |
| 2026-05-05 18:07 | -26.48284 | 152.22908 | 16507 ft | 381 kts | 138° |
| 2026-05-05 18:07 | -26.50238 | 152.24880 | 16109 ft | 377 kts | 138° |
| 2026-05-05 18:07 | -26.52166 | 152.26831 | 15716 ft | 373 kts | 138° |
| 2026-05-05 18:07 | -26.54055 | 152.28739 | 15333 ft | 369 kts | 138° |
| 2026-05-05 18:08 | -26.55948 | 152.30648 | 14938 ft | 365 kts | 138° |
| 2026-05-05 18:08 | -26.57821 | 152.32539 | 14552 ft | 361 kts | 138° |
| 2026-05-05 18:08 | -26.59675 | 152.34410 | 14168 ft | 357 kts | 138° |
| 2026-05-05 18:08 | -26.61506 | 152.36260 | 13782 ft | 353 kts | 138° |
| 2026-05-05 18:09 | -26.63316 | 152.38091 | 13402 ft | 349 kts | 138° |
| 2026-05-05 18:09 | -26.65105 | 152.39915 | 13020 ft | 346 kts | 137° |
| 2026-05-05 18:09 | -26.66861 | 152.41729 | 12643 ft | 342 kts | 137° |
| 2026-05-05 18:09 | -26.68595 | 152.43528 | 12269 ft | 338 kts | 137° |
| 2026-05-05 18:10 | -26.70313 | 152.45307 | 11897 ft | 335 kts | 137° |
| 2026-05-05 18:10 | -26.72015 | 152.47062 | 11532 ft | 331 kts | 137° |
| 2026-05-05 18:10 | -26.73694 | 152.48791 | 11181 ft | 326 kts | 137° |
| 2026-05-05 18:10 | -26.75356 | 152.50509 | 10820 ft | 323 kts | 137° |
| 2026-05-05 18:11 | -26.76991 | 152.52202 | 10465 ft | 319 kts | 137° |
| 2026-05-05 18:11 | -26.78611 | 152.53878 | 10076 ft | 316 kts | 137° |
| 2026-05-05 18:11 | -26.80219 | 152.55543 | 9676 ft | 314 kts | 138° |
| 2026-05-05 18:11 | -26.81811 | 152.57196 | 9308 ft | 310 kts | 138° |
| 2026-05-05 18:12 | -26.83383 | 152.58826 | 9029 ft | 305 kts | 138° |
| 2026-05-05 18:12 | -26.84936 | 152.60429 | 9007 ft | 303 kts | 137° |
| 2026-05-05 18:12 | -26.86486 | 152.62029 | 9008 ft | 303 kts | 137° |
| 2026-05-05 18:12 | -26.88036 | 152.63632 | 9012 ft | 304 kts | 137° |
| 2026-05-05 18:13 | -26.89584 | 152.65233 | 8950 ft | 300 kts | 137° |
| 2026-05-05 18:13 | -26.91088 | 152.66791 | 8830 ft | 290 kts | 137° |
| 2026-05-05 18:13 | -26.92550 | 152.68298 | 8668 ft | 281 kts | 138° |
| 2026-05-05 18:13 | -26.93964 | 152.69754 | 8487 ft | 273 kts | 137° |
| 2026-05-05 18:14 | -26.95352 | 152.71190 | 8204 ft | 270 kts | 137° |
| 2026-05-05 18:14 | -26.96734 | 152.72625 | 7830 ft | 271 kts | 137° |
| 2026-05-05 18:14 | -26.98115 | 152.74041 | 7551 ft | 268 kts | 137° |
| 2026-05-05 18:14 | -26.99500 | 152.75440 | 7173 ft | 268 kts | 138° |
| 2026-05-05 18:15 | -27.00879 | 152.76840 | 6834 ft | 268 kts | 138° |
| 2026-05-05 18:15 | -27.02258 | 152.78259 | 6426 ft | 270 kts | 137° |
| 2026-05-05 18:15 | -27.03625 | 152.79685 | 6133 ft | 267 kts | 137° |
| 2026-05-05 18:15 | -27.04976 | 152.81086 | 5920 ft | 261 kts | 137° |
| 2026-05-05 18:16 | -27.06298 | 152.82448 | 5757 ft | 254 kts | 137° |
| 2026-05-05 18:16 | -27.07567 | 152.83751 | 5563 ft | 247 kts | 137° |
| 2026-05-05 18:16 | -27.08782 | 152.85006 | 5404 ft | 240 kts | 136° |
| 2026-05-05 18:16 | -27.09968 | 152.86244 | 5324 ft | 229 kts | 136° |
| 2026-05-05 18:17 | -27.11108 | 152.87421 | 5303 ft | 216 kts | 136° |
| 2026-05-05 18:17 | -27.12077 | 152.88653 | 5205 ft | 207 kts | 123° |
| 2026-05-05 18:17 | -27.12624 | 152.90127 | 4971 ft | 204 kts | 104° |
| 2026-05-05 18:17 | -27.12916 | 152.91676 | 4708 ft | 204 kts | 102° |
| 2026-05-05 18:18 | -27.13212 | 152.93246 | 4368 ft | 208 kts | 105° |
| 2026-05-05 18:18 | -27.13583 | 152.94823 | 4101 ft | 209 kts | 107° |
| 2026-05-05 18:18 | -27.13972 | 152.96417 | 3732 ft | 214 kts | 106° |
| 2026-05-05 18:18 | -27.14325 | 152.98029 | 3548 ft | 208 kts | 104° |
| 2026-05-05 18:19 | -27.14642 | 152.99579 | 3423 ft | 202 kts | 104° |
| 2026-05-05 18:19 | -27.14963 | 153.01107 | 3175 ft | 201 kts | 105° |
| 2026-05-05 18:19 | -27.15296 | 153.02640 | 2950 ft | 202 kts | 105° |
| 2026-05-05 18:19 | -27.15640 | 153.04189 | 2944 ft | 205 kts | 105° |
| 2026-05-05 18:20 | -27.15972 | 153.05748 | 2929 ft | 203 kts | 105° |
| 2026-05-05 18:20 | -27.16285 | 153.07246 | 2949 ft | 191 kts | 105° |
| 2026-05-05 18:20 | -27.16598 | 153.08692 | 3026 ft | 191 kts | 106° |
| 2026-05-05 18:20 | -27.16903 | 153.10120 | 3068 ft | 185 kts | 105° |
| 2026-05-05 18:21 | -27.17200 | 153.11487 | 3009 ft | 178 kts | 107° |
| 2026-05-05 18:21 | -27.17496 | 153.12839 | 2995 ft | 178 kts | 105° |
| 2026-05-05 18:21 | -27.17787 | 153.14197 | 2952 ft | 178 kts | 108° |
| 2026-05-05 18:21 | -27.18323 | 153.15433 | 2967 ft | 176 kts | 128° |
| 2026-05-05 18:22 | -27.19147 | 153.16450 | 3012 ft | 176 kts | 135° |
| 2026-05-05 18:22 | -27.19957 | 153.17428 | 3005 ft | 166 kts | 132° |
| 2026-05-05 18:22 | -27.20707 | 153.18401 | 3038 ft | 161 kts | 131° |
| 2026-05-05 18:22 | -27.21465 | 153.19278 | 2973 ft | 155 kts | 148° |
| 2026-05-05 18:23 | -27.22493 | 153.19510 | 2809 ft | 154 kts | 184° |
| 2026-05-05 18:23 | -27.23499 | 153.19149 | 2660 ft | 152 kts | 202° |
| 2026-05-05 18:23 | -27.24442 | 153.18620 | 2484 ft | 151 kts | 205° |
| 2026-05-05 18:23 | -27.25362 | 153.18084 | 2279 ft | 150 kts | 205° |
| 2026-05-05 18:24 | -27.26296 | 153.17553 | 2078 ft | 150 kts | 204° |
| 2026-05-05 18:24 | -27.27227 | 153.17023 | 1878 ft | 149 kts | 205° |
| 2026-05-05 18:24 | -27.28150 | 153.16493 | 1714 ft | 150 kts | 205° |
| 2026-05-05 18:24 | -27.29066 | 153.15970 | 1496 ft | 147 kts | 205° |
| 2026-05-05 18:25 | -27.29978 | 153.15449 | 1295 ft | 147 kts | 206° |
| 2026-05-05 18:25 | -27.30593 | 153.15097 | 1158 ft | 146 kts | 207° |
| 2026-05-05 18:25 | -27.31793 | 153.14410 | 898 ft | 146 kts | 207° |
| 2026-05-05 18:25 | -27.32696 | 153.13894 | 703 ft | 145 kts | 207° |
| 2026-05-05 18:26 | -27.33595 | 153.13379 | 510 ft | 145 kts | 207° |
| 2026-05-05 18:26 | -27.34491 | 153.12866 | 319 ft | 144 kts | 207° |
| 2026-05-05 18:26 | -27.35386 | 153.12355 | 127 ft | 144 kts | 207° |
| 2026-05-05 18:26 | -27.36251 | 153.11858 | 27 ft | 122 kts | 207° |
| 2026-05-05 18:27 | -27.36757 | 153.11569 | 27 ft | 53 kts | 206° |
| 2026-05-05 18:27 | -27.37079 | 153.11387 | 27 ft | 48 kts | 203° |
| 2026-05-05 18:27 | -27.37284 | 153.11325 | 27 ft | 23 kts | 182° |
| 2026-05-05 18:27 | -27.37386 | 153.11328 | 27 ft | 0 kts | 175° |
| 2026-05-05 18:28 | -27.37399 | 153.11329 | 27 ft | 3 kts | 175° |
| 2026-05-05 18:28 | -27.37429 | 153.11331 | 27 ft | 6 kts | 176° |
| 2026-05-05 18:28 | -27.37475 | 153.11337 | 27 ft | 8 kts | 161° |
| 2026-05-05 18:29 | -27.37524 | 153.11376 | 27 ft | 10 kts | 125° |
| 2026-05-05 18:29 | -27.37523 | 153.11453 | 27 ft | 12 kts | 45° |
| 2026-05-05 18:29 | -27.37456 | 153.11495 | 27 ft | 12 kts | 21° |
| 2026-05-05 18:29 | -27.37415 | 153.11541 | 27 ft | 8 kts | 81° |
| 2026-05-05 18:30 | -27.37433 | 153.11606 | 27 ft | 10 kts | 116° |
| 2026-05-05 18:30 | -27.37469 | 153.11685 | 27 ft | 12 kts | 117° |
| 2026-05-05 18:30 | -27.37511 | 153.11780 | 27 ft | 15 kts | 117° |
| 2026-05-05 18:30 | -27.37562 | 153.11890 | 27 ft | 17 kts | 117° |
| 2026-05-05 18:31 | -27.37617 | 153.12015 | 27 ft | 19 kts | 116° |
| 2026-05-05 18:31 | -27.37680 | 153.12154 | 27 ft | 21 kts | 117° |
| 2026-05-05 18:31 | -27.37743 | 153.12292 | 27 ft | 19 kts | 117° |
| 2026-05-05 18:31 | -27.37796 | 153.12411 | 27 ft | 12 kts | 116° |
| 2026-05-05 18:32 | -27.37840 | 153.12506 | 27 ft | 15 kts | 117° |
| 2026-05-05 18:32 | -27.37885 | 153.12605 | 27 ft | 14 kts | 117° |
| 2026-05-05 18:32 | -27.37926 | 153.12696 | 27 ft | 11 kts | 117° |
| 2026-05-05 18:32 | -27.37945 | 153.12781 | 27 ft | 12 kts | 57° |
| 2026-05-05 18:33 | -27.37890 | 153.12826 | 27 ft | 3 kts | 28° |
| 2026-05-05 18:33 | -27.37889 | 153.12838 | 27 ft | 3 kts | 116° |
| 2026-05-05 18:33 | -27.37913 | 153.12888 | 27 ft | 10 kts | 119° |
| 2026-05-05 18:33 | -27.37975 | 153.12911 | 27 ft | 11 kts | 195° |
| 2026-05-05 18:34 | -27.38050 | 153.12871 | 27 ft | 13 kts | 206° |
| 2026-05-05 18:34 | -27.38134 | 153.12823 | 27 ft | 15 kts | 207° |
| 2026-05-05 18:34 | -27.38234 | 153.12766 | 27 ft | 17 kts | 207° |
| 2026-05-05 18:34 | -27.38348 | 153.12702 | 27 ft | 16 kts | 208° |
| 2026-05-05 18:35 | -27.38440 | 153.12649 | 27 ft | 16 kts | 207° |
| 2026-05-05 18:35 | -27.38545 | 153.12588 | 27 ft | 18 kts | 206° |
| 2026-05-05 18:35 | -27.38665 | 153.12520 | 27 ft | 20 kts | 207° |
| 2026-05-05 18:35 | -27.38758 | 153.12457 | 27 ft | 13 kts | 234° |
| 2026-05-05 18:36 | -27.38755 | 153.12366 | 27 ft | 13 kts | 269° |
| 2026-05-05 18:36 | -27.38816 | 153.12295 | 27 ft | 15 kts | 207° |
| 2026-05-05 18:36 | -27.38912 | 153.12240 | 27 ft | 17 kts | 207° |
| 2026-05-05 18:36 | -27.39027 | 153.12176 | 27 ft | 19 kts | 207° |
| 2026-05-05 18:37 | -27.39151 | 153.12103 | 27 ft | 22 kts | 207° |
| 2026-05-05 18:37 | -27.39277 | 153.12031 | 27 ft | 20 kts | 207° |
| 2026-05-05 18:37 | -27.39408 | 153.11956 | 27 ft | 22 kts | 207° |
| 2026-05-05 18:37 | -27.39533 | 153.11885 | 27 ft | 20 kts | 207° |
| 2026-05-05 18:38 | -27.39662 | 153.11810 | 27 ft | 18 kts | 207° |
| 2026-05-05 18:38 | -27.39776 | 153.11745 | 27 ft | 16 kts | 207° |
| 2026-05-05 18:38 | -27.39853 | 153.11700 | 27 ft | 8 kts | 216° |
| 2026-05-05 18:38 | -27.39865 | 153.11644 | 27 ft | 8 kts | 286° |
| 2026-05-05 18:39 | -27.39878 | 153.11579 | 27 ft | 10 kts | 221° |
| 2026-05-05 18:39 | -27.39945 | 153.11537 | 27 ft | 12 kts | 207° |
| 2026-05-05 18:39 | -27.40003 | 153.11503 | 27 ft | 8 kts | 207° |
| 2026-05-05 18:39 | -27.40051 | 153.11476 | 27 ft | 6 kts | 208° |
| 2026-05-05 18:40 | -27.40087 | 153.11455 | 27 ft | 6 kts | 211° |
| 2026-05-05 18:40 | -27.40090 | 153.11414 | 27 ft | 6 kts | 296° |
| 2026-05-05 18:40 | -27.40087 | 153.11407 | 27 ft | 1 kts | 296° |
| 2026-05-05 18:40 | -27.40076 | 153.11383 | 27 ft | 5 kts | 297° |
| 2026-05-05 18:41 | -27.40063 | 153.11354 | 27 ft | 4 kts | 297° |
| 2026-05-05 18:41 | -27.40058 | 153.11344 | 27 ft | 0 kts | 298° |